BCS677 MMMX-MMSD
Flight info
| Callsign | BCS677 |
|---|---|
| Flight time | 1h 47m |
| Altitude | 38000 |
| Route | SEBON3B SEBON UT124 GDL UJ3 RADAP UT153 DEDKU UT14 TENAY TENAY1A |
| Aircraft | B752/M-SDE1FGHILRWXYZ/LB1 |
Departure
| Time | 2026-04-22 21:43 |
|---|---|
| Airport | Mexico City Benito Juárez International Airport (MMMX) |
Arrival
| Time | 2026-04-22 23:31 |
|---|---|
| Airport | Los Cabos International Airport (MMSD) |
| Time | Latitude | Longitude | Altitude | Speed | Heading |
|---|---|---|---|---|---|
| 2026-04-22 21:14 | 19.44124 | -99.07179 | 7348 ft | 0 kts | 330° |
| 2026-04-22 21:30 | 19.44114 | -99.07173 | 7347 ft | 2 kts | 330° |
| 2026-04-22 21:30 | 19.44101 | -99.07166 | 7347 ft | 2 kts | 330° |
| 2026-04-22 21:30 | 19.44088 | -99.07157 | 7347 ft | 2 kts | 330° |
| 2026-04-22 21:31 | 19.44075 | -99.07149 | 7347 ft | 2 kts | 331° |
| 2026-04-22 21:31 | 19.44060 | -99.07145 | 7347 ft | 2 kts | 6° |
| 2026-04-22 21:31 | 19.44046 | -99.07150 | 7347 ft | 2 kts | 33° |
| 2026-04-22 21:31 | 19.44037 | -99.07159 | 7347 ft | 0 kts | 56° |
| 2026-04-22 21:32 | 19.44034 | -99.07166 | 7347 ft | 0 kts | 59° |
| 2026-04-22 21:32 | 19.44033 | -99.07166 | 7347 ft | 0 kts | 59° |
| 2026-04-22 21:36 | 19.44037 | -99.07159 | 7347 ft | 3 kts | 59° |
| 2026-04-22 21:36 | 19.44060 | -99.07118 | 7347 ft | 8 kts | 59° |
| 2026-04-22 21:36 | 19.44089 | -99.07069 | 7346 ft | 6 kts | 59° |
| 2026-04-22 21:36 | 19.44111 | -99.07029 | 7346 ft | 6 kts | 58° |
| 2026-04-22 21:37 | 19.44144 | -99.06973 | 7346 ft | 11 kts | 59° |
| 2026-04-22 21:37 | 19.44193 | -99.06887 | 7346 ft | 14 kts | 58° |
| 2026-04-22 21:37 | 19.44245 | -99.06794 | 7345 ft | 14 kts | 60° |
| 2026-04-22 21:37 | 19.44290 | -99.06711 | 7344 ft | 13 kts | 60° |
| 2026-04-22 21:38 | 19.44346 | -99.06611 | 7342 ft | 17 kts | 60° |
| 2026-04-22 21:38 | 19.44406 | -99.06504 | 7341 ft | 16 kts | 59° |
| 2026-04-22 21:38 | 19.44458 | -99.06405 | 7340 ft | 14 kts | 77° |
| 2026-04-22 21:38 | 19.44434 | -99.06313 | 7339 ft | 12 kts | 112° |
| 2026-04-22 21:39 | 19.44404 | -99.06235 | 7339 ft | 10 kts | 112° |
| 2026-04-22 21:39 | 19.44370 | -99.06149 | 7338 ft | 14 kts | 113° |
| 2026-04-22 21:39 | 19.44329 | -99.06045 | 7338 ft | 14 kts | 112° |
| 2026-04-22 21:39 | 19.44291 | -99.05951 | 7337 ft | 13 kts | 112° |
| 2026-04-22 21:40 | 19.44253 | -99.05847 | 7338 ft | 16 kts | 111° |
| 2026-04-22 21:40 | 19.44212 | -99.05739 | 7338 ft | 14 kts | 111° |
| 2026-04-22 21:40 | 19.44179 | -99.05647 | 7339 ft | 11 kts | 102° |
| 2026-04-22 21:40 | 19.44197 | -99.05573 | 7339 ft | 11 kts | 59° |
| 2026-04-22 21:41 | 19.44248 | -99.05483 | 7339 ft | 15 kts | 59° |
| 2026-04-22 21:41 | 19.44304 | -99.05386 | 7339 ft | 14 kts | 58° |
| 2026-04-22 21:41 | 19.44354 | -99.05302 | 7338 ft | 12 kts | 58° |
| 2026-04-22 21:41 | 19.44406 | -99.05253 | 7337 ft | 8 kts | 0° |
| 2026-04-22 21:42 | 19.44455 | -99.05277 | 7337 ft | 8 kts | 327° |
| 2026-04-22 21:42 | 19.44509 | -99.05324 | 7337 ft | 9 kts | 299° |
| 2026-04-22 21:42 | 19.44502 | -99.05381 | 7338 ft | 11 kts | 240° |
| 2026-04-22 21:42 | 19.44385 | -99.05586 | 7339 ft | 64 kts | 240° |
| 2026-04-22 21:43 | 19.44029 | -99.06219 | 7339 ft | 135 kts | 240° |
| 2026-04-22 21:43 | 19.43451 | -99.07250 | 7459 ft | 182 kts | 243° |
| 2026-04-22 21:43 | 19.42795 | -99.08469 | 8040 ft | 199 kts | 244° |
| 2026-04-22 21:43 | 19.42119 | -99.09766 | 8735 ft | 207 kts | 244° |
| 2026-04-22 21:44 | 19.41405 | -99.11145 | 9176 ft | 224 kts | 244° |
| 2026-04-22 21:44 | 19.40621 | -99.12619 | 9661 ft | 239 kts | 242° |
| 2026-04-22 21:44 | 19.39732 | -99.14239 | 10029 ft | 262 kts | 242° |
| 2026-04-22 21:44 | 19.38818 | -99.15901 | 10875 ft | 263 kts | 242° |
| 2026-04-22 21:45 | 19.37896 | -99.17586 | 11595 ft | 270 kts | 242° |
| 2026-04-22 21:45 | 19.37240 | -99.19437 | 12293 ft | 272 kts | 268° |
| 2026-04-22 21:45 | 19.37467 | -99.21373 | 13007 ft | 271 kts | 296° |
| 2026-04-22 21:45 | 19.38539 | -99.22967 | 13696 ft | 271 kts | 320° |
| 2026-04-22 21:46 | 19.39972 | -99.24258 | 14480 ft | 271 kts | 320° |
| 2026-04-22 21:46 | 19.41420 | -99.25547 | 15264 ft | 273 kts | 321° |
| 2026-04-22 21:46 | 19.42892 | -99.26823 | 16010 ft | 275 kts | 321° |
| 2026-04-22 21:46 | 19.44375 | -99.28090 | 16638 ft | 279 kts | 321° |
| 2026-04-22 21:47 | 19.45915 | -99.29398 | 17258 ft | 284 kts | 319° |
| 2026-04-22 21:47 | 19.47234 | -99.30994 | 17501 ft | 303 kts | 300° |
| 2026-04-22 21:47 | 19.48008 | -99.33154 | 17784 ft | 322 kts | 281° |
| 2026-04-22 21:47 | 19.48052 | -99.35525 | 18392 ft | 328 kts | 262° |
| 2026-04-22 21:48 | 19.47366 | -99.37807 | 19138 ft | 332 kts | 245° |
| 2026-04-22 21:48 | 19.46186 | -99.39952 | 19716 ft | 338 kts | 243° |
| 2026-04-22 21:48 | 19.45114 | -99.42180 | 20382 ft | 339 kts | 248° |
| 2026-04-22 21:48 | 19.44147 | -99.44452 | 21011 ft | 341 kts | 250° |
| 2026-04-22 21:49 | 19.43234 | -99.46742 | 21594 ft | 343 kts | 250° |
| 2026-04-22 21:49 | 19.42338 | -99.49084 | 22208 ft | 345 kts | 251° |
| 2026-04-22 21:49 | 19.41449 | -99.51466 | 22797 ft | 347 kts | 251° |
| 2026-04-22 21:49 | 19.40567 | -99.53861 | 23313 ft | 352 kts | 252° |
| 2026-04-22 21:50 | 19.39683 | -99.56280 | 23920 ft | 355 kts | 252° |
| 2026-04-22 21:50 | 19.38794 | -99.58729 | 24515 ft | 359 kts | 254° |
| 2026-04-22 21:50 | 19.38190 | -99.61329 | 24623 ft | 373 kts | 267° |
| 2026-04-22 21:50 | 19.38014 | -99.64100 | 24674 ft | 388 kts | 269° |
| 2026-04-22 21:51 | 19.37831 | -99.67026 | 24719 ft | 401 kts | 269° |
| 2026-04-22 21:51 | 19.37644 | -99.69987 | 25099 ft | 404 kts | 269° |
| 2026-04-22 21:51 | 19.37457 | -99.72973 | 25516 ft | 406 kts | 269° |
| 2026-04-22 21:52 | 19.37083 | -99.78964 | 26248 ft | 410 kts | 269° |
| 2026-04-22 21:52 | 19.36895 | -99.81978 | 26512 ft | 414 kts | 269° |
| 2026-04-22 21:52 | 19.36705 | -99.84990 | 26895 ft | 414 kts | 269° |
| 2026-04-22 21:52 | 19.36514 | -99.88039 | 27102 ft | 418 kts | 269° |
| 2026-04-22 21:53 | 19.36320 | -99.91085 | 27509 ft | 417 kts | 269° |
| 2026-04-22 21:53 | 19.36127 | -99.94147 | 27801 ft | 419 kts | 269° |
| 2026-04-22 21:53 | 19.35930 | -99.97250 | 28075 ft | 421 kts | 269° |
| 2026-04-22 21:53 | 19.35733 | -100.00345 | 28346 ft | 424 kts | 269° |
| 2026-04-22 21:54 | 19.35533 | -100.03480 | 28615 ft | 425 kts | 269° |
| 2026-04-22 21:54 | 19.35333 | -100.06590 | 28833 ft | 428 kts | 269° |
| 2026-04-22 21:54 | 19.35141 | -100.09718 | 29128 ft | 429 kts | 270° |
| 2026-04-22 21:54 | 19.35257 | -100.12894 | 29344 ft | 429 kts | 281° |
| 2026-04-22 21:55 | 19.35913 | -100.15932 | 29893 ft | 426 kts | 289° |
| 2026-04-22 21:55 | 19.36850 | -100.18909 | 30277 ft | 429 kts | 290° |
| 2026-04-22 21:55 | 19.37798 | -100.21876 | 30807 ft | 429 kts | 290° |
| 2026-04-22 21:55 | 19.38775 | -100.24894 | 31105 ft | 434 kts | 290° |
| 2026-04-22 21:56 | 19.39754 | -100.27895 | 31531 ft | 434 kts | 290° |
| 2026-04-22 21:56 | 19.40739 | -100.30904 | 32024 ft | 434 kts | 290° |
| 2026-04-22 21:56 | 19.41732 | -100.33929 | 32465 ft | 433 kts | 290° |
| 2026-04-22 21:56 | 19.42710 | -100.36906 | 33003 ft | 431 kts | 290° |
| 2026-04-22 21:57 | 19.43690 | -100.39890 | 33535 ft | 429 kts | 289° |
| 2026-04-22 21:57 | 19.44668 | -100.42865 | 34153 ft | 425 kts | 289° |
| 2026-04-22 21:57 | 19.45632 | -100.45799 | 34747 ft | 421 kts | 289° |
| 2026-04-22 21:57 | 19.46593 | -100.48722 | 35160 ft | 421 kts | 289° |
| 2026-04-22 21:58 | 19.47551 | -100.51640 | 35614 ft | 419 kts | 289° |
| 2026-04-22 21:58 | 19.48504 | -100.54541 | 36160 ft | 415 kts | 289° |
| 2026-04-22 21:58 | 19.49440 | -100.57396 | 36631 ft | 412 kts | 288° |
| 2026-04-22 21:58 | 19.50379 | -100.60257 | 36902 ft | 413 kts | 288° |
| 2026-04-22 21:59 | 19.51324 | -100.63145 | 37109 ft | 415 kts | 288° |
| 2026-04-22 21:59 | 19.52269 | -100.66027 | 37559 ft | 411 kts | 288° |
| 2026-04-22 21:59 | 19.53212 | -100.68908 | 37978 ft | 409 kts | 288° |
| 2026-04-22 21:59 | 19.54135 | -100.71731 | 38147 ft | 411 kts | 288° |
| 2026-04-22 22:00 | 19.55080 | -100.74564 | 38355 ft | 410 kts | 289° |
| 2026-04-22 22:00 | 19.57033 | -100.80280 | 38318 ft | 409 kts | 288° |
| 2026-04-22 22:01 | 19.58945 | -100.85890 | 38325 ft | 404 kts | 288° |
| 2026-04-22 22:01 | 19.60854 | -100.91498 | 38293 ft | 409 kts | 288° |
| 2026-04-22 22:02 | 19.62773 | -100.97143 | 38279 ft | 406 kts | 288° |
| 2026-04-22 22:02 | 19.64678 | -101.02754 | 38278 ft | 407 kts | 288° |
| 2026-04-22 22:03 | 19.66594 | -101.08404 | 38290 ft | 407 kts | 288° |
| 2026-04-22 22:03 | 19.68510 | -101.14059 | 38318 ft | 406 kts | 289° |
| 2026-04-22 22:04 | 19.70412 | -101.19679 | 38339 ft | 409 kts | 289° |
| 2026-04-22 22:04 | 19.72329 | -101.25352 | 38343 ft | 409 kts | 289° |
| 2026-04-22 22:05 | 19.74244 | -101.31023 | 38373 ft | 410 kts | 289° |
| 2026-04-22 22:05 | 19.76155 | -101.36690 | 38396 ft | 410 kts | 289° |
| 2026-04-22 22:06 | 19.78073 | -101.42387 | 38410 ft | 409 kts | 289° |
| 2026-04-22 22:06 | 19.79970 | -101.48022 | 38418 ft | 408 kts | 289° |
| 2026-04-22 22:07 | 19.81881 | -101.53713 | 38420 ft | 409 kts | 288° |
| 2026-04-22 22:07 | 19.83779 | -101.59366 | 38382 ft | 408 kts | 289° |
| 2026-04-22 22:08 | 19.85684 | -101.65047 | 38367 ft | 409 kts | 289° |
| 2026-04-22 22:08 | 19.87583 | -101.70721 | 38362 ft | 410 kts | 289° |
| 2026-04-22 22:09 | 19.89498 | -101.76445 | 38352 ft | 412 kts | 288° |
| 2026-04-22 22:09 | 19.91408 | -101.82165 | 38340 ft | 411 kts | 288° |
| 2026-04-22 22:10 | 19.93320 | -101.87896 | 38338 ft | 412 kts | 289° |
| 2026-04-22 22:10 | 19.95217 | -101.93587 | 38362 ft | 412 kts | 288° |
| 2026-04-22 22:11 | 19.97133 | -101.99342 | 38363 ft | 411 kts | 288° |
| 2026-04-22 22:11 | 19.99024 | -102.05034 | 38349 ft | 410 kts | 289° |
| 2026-04-22 22:12 | 20.00930 | -102.10774 | 38353 ft | 411 kts | 289° |
| 2026-04-22 22:12 | 20.02819 | -102.16471 | 38339 ft | 410 kts | 289° |
| 2026-04-22 22:13 | 20.04714 | -102.22193 | 38331 ft | 410 kts | 289° |
| 2026-04-22 22:13 | 20.06606 | -102.27911 | 38323 ft | 413 kts | 289° |
| 2026-04-22 22:14 | 20.08506 | -102.33660 | 38322 ft | 412 kts | 289° |
| 2026-04-22 22:14 | 20.10404 | -102.39414 | 38321 ft | 410 kts | 289° |
| 2026-04-22 22:15 | 20.12286 | -102.45122 | 38327 ft | 411 kts | 289° |
| 2026-04-22 22:15 | 20.14174 | -102.50854 | 38324 ft | 412 kts | 289° |
| 2026-04-22 22:16 | 20.16064 | -102.56605 | 38315 ft | 411 kts | 289° |
| 2026-04-22 22:16 | 20.17944 | -102.62327 | 38315 ft | 411 kts | 289° |
| 2026-04-22 22:17 | 20.19863 | -102.68108 | 38317 ft | 412 kts | 292° |
| 2026-04-22 22:17 | 20.22510 | -102.73490 | 38304 ft | 414 kts | 298° |
| 2026-04-22 22:18 | 20.25275 | -102.78836 | 38299 ft | 412 kts | 297° |
| 2026-04-22 22:18 | 20.28054 | -102.84196 | 38302 ft | 412 kts | 298° |
| 2026-04-22 22:19 | 20.30818 | -102.89520 | 38303 ft | 414 kts | 298° |
| 2026-04-22 22:19 | 20.33622 | -102.94922 | 38306 ft | 414 kts | 298° |
| 2026-04-22 22:20 | 20.36393 | -103.00268 | 38308 ft | 414 kts | 298° |
| 2026-04-22 22:20 | 20.39166 | -103.05621 | 38286 ft | 413 kts | 298° |
| 2026-04-22 22:21 | 20.41930 | -103.10963 | 38271 ft | 413 kts | 298° |
| 2026-04-22 22:21 | 20.44713 | -103.16344 | 38258 ft | 413 kts | 298° |
| 2026-04-22 22:22 | 20.47485 | -103.21711 | 38249 ft | 414 kts | 298° |
| 2026-04-22 22:22 | 20.50250 | -103.27068 | 38235 ft | 411 kts | 298° |
| 2026-04-22 22:23 | 20.53381 | -103.32144 | 38251 ft | 412 kts | 311° |
| 2026-04-22 22:23 | 20.57377 | -103.36580 | 38243 ft | 415 kts | 312° |
| 2026-04-22 22:24 | 20.61370 | -103.40975 | 38252 ft | 414 kts | 312° |
| 2026-04-22 22:24 | 20.65398 | -103.45393 | 38255 ft | 416 kts | 312° |
| 2026-04-22 22:25 | 20.69438 | -103.49819 | 38267 ft | 416 kts | 313° |
| 2026-04-22 22:25 | 20.73477 | -103.54245 | 38269 ft | 416 kts | 312° |
| 2026-04-22 22:26 | 20.77509 | -103.58666 | 38272 ft | 414 kts | 312° |
| 2026-04-22 22:26 | 20.81529 | -103.63077 | 38268 ft | 416 kts | 312° |
| 2026-04-22 22:27 | 20.85560 | -103.67504 | 38273 ft | 415 kts | 312° |
| 2026-04-22 22:27 | 20.89585 | -103.71928 | 38280 ft | 415 kts | 312° |
| 2026-04-22 22:28 | 20.93583 | -103.76325 | 38289 ft | 416 kts | 312° |
| 2026-04-22 22:28 | 20.97629 | -103.80778 | 38281 ft | 415 kts | 312° |
| 2026-04-22 22:29 | 21.01636 | -103.85194 | 38271 ft | 415 kts | 312° |
| 2026-04-22 22:29 | 21.05668 | -103.89642 | 38253 ft | 416 kts | 312° |
| 2026-04-22 22:30 | 21.09667 | -103.94054 | 38224 ft | 414 kts | 312° |
| 2026-04-22 22:30 | 21.13699 | -103.98508 | 38204 ft | 414 kts | 312° |
| 2026-04-22 22:31 | 21.17708 | -104.02937 | 38179 ft | 413 kts | 312° |
| 2026-04-22 22:31 | 21.21720 | -104.07376 | 38165 ft | 413 kts | 312° |
| 2026-04-22 22:32 | 21.25692 | -104.11779 | 38158 ft | 410 kts | 312° |
| 2026-04-22 22:32 | 21.29660 | -104.16181 | 38182 ft | 410 kts | 312° |
| 2026-04-22 22:33 | 21.33304 | -104.20812 | 38227 ft | 407 kts | 300° |
| 2026-04-22 22:33 | 21.35526 | -104.26384 | 38215 ft | 406 kts | 290° |
| 2026-04-22 22:34 | 21.37449 | -104.32046 | 38204 ft | 406 kts | 290° |
| 2026-04-22 22:34 | 21.39347 | -104.37747 | 38179 ft | 404 kts | 290° |
| 2026-04-22 22:35 | 21.41215 | -104.43407 | 38151 ft | 405 kts | 290° |
| 2026-04-22 22:35 | 21.43097 | -104.49131 | 38114 ft | 406 kts | 290° |
| 2026-04-22 22:36 | 21.44947 | -104.54771 | 38090 ft | 403 kts | 290° |
| 2026-04-22 22:36 | 21.46806 | -104.60451 | 38098 ft | 405 kts | 290° |
| 2026-04-22 22:37 | 21.48673 | -104.66161 | 38114 ft | 404 kts | 290° |
| 2026-04-22 22:37 | 21.50534 | -104.71860 | 38132 ft | 404 kts | 290° |
| 2026-04-22 22:38 | 21.52385 | -104.77537 | 38149 ft | 404 kts | 289° |
| 2026-04-22 22:38 | 21.54231 | -104.83207 | 38157 ft | 403 kts | 290° |
| 2026-04-22 22:39 | 21.56064 | -104.88844 | 38145 ft | 402 kts | 289° |
| 2026-04-22 22:39 | 21.57899 | -104.94492 | 38133 ft | 402 kts | 290° |
| 2026-04-22 22:40 | 21.59746 | -105.00185 | 38096 ft | 401 kts | 290° |
| 2026-04-22 22:40 | 21.61566 | -105.05806 | 38041 ft | 399 kts | 290° |
| 2026-04-22 22:41 | 21.63388 | -105.11435 | 38010 ft | 401 kts | 290° |
| 2026-04-22 22:41 | 21.65227 | -105.17127 | 37969 ft | 402 kts | 290° |
| 2026-04-22 22:42 | 21.67053 | -105.22785 | 37936 ft | 401 kts | 290° |
| 2026-04-22 22:42 | 21.68864 | -105.28408 | 37915 ft | 402 kts | 290° |
| 2026-04-22 22:43 | 21.70693 | -105.34090 | 37921 ft | 401 kts | 290° |
| 2026-04-22 22:43 | 21.72507 | -105.39733 | 37931 ft | 402 kts | 290° |
| 2026-04-22 22:44 | 21.74326 | -105.45398 | 37928 ft | 400 kts | 290° |
| 2026-04-22 22:44 | 21.76058 | -105.51088 | 37932 ft | 400 kts | 289° |
| 2026-04-22 22:45 | 21.77692 | -105.56760 | 37935 ft | 401 kts | 289° |
| 2026-04-22 22:45 | 21.79345 | -105.62499 | 37932 ft | 400 kts | 289° |
| 2026-04-22 22:46 | 21.80976 | -105.68168 | 37943 ft | 400 kts | 289° |
| 2026-04-22 22:46 | 21.82625 | -105.73907 | 37938 ft | 401 kts | 289° |
| 2026-04-22 22:47 | 21.84258 | -105.79597 | 37940 ft | 399 kts | 289° |
| 2026-04-22 22:47 | 21.85895 | -105.85308 | 37939 ft | 400 kts | 289° |
| 2026-04-22 22:48 | 21.87534 | -105.91035 | 37936 ft | 400 kts | 289° |
| 2026-04-22 22:48 | 21.89159 | -105.96722 | 37942 ft | 400 kts | 289° |
| 2026-04-22 22:49 | 21.90789 | -106.02434 | 37939 ft | 399 kts | 289° |
| 2026-04-22 22:49 | 21.92414 | -106.08135 | 37944 ft | 400 kts | 289° |
| 2026-04-22 22:50 | 21.94044 | -106.13865 | 37943 ft | 398 kts | 289° |
| 2026-04-22 22:50 | 21.95659 | -106.19550 | 37949 ft | 400 kts | 289° |
| 2026-04-22 22:51 | 21.97277 | -106.25252 | 37951 ft | 400 kts | 289° |
| 2026-04-22 22:51 | 21.98905 | -106.30999 | 37949 ft | 399 kts | 289° |
| 2026-04-22 22:52 | 22.00510 | -106.36674 | 37940 ft | 399 kts | 289° |
| 2026-04-22 22:52 | 22.02122 | -106.42381 | 37942 ft | 398 kts | 289° |
| 2026-04-22 22:53 | 22.03731 | -106.48082 | 37949 ft | 399 kts | 289° |
| 2026-04-22 22:53 | 22.05336 | -106.53783 | 37936 ft | 398 kts | 289° |
| 2026-04-22 22:54 | 22.06939 | -106.59481 | 37941 ft | 398 kts | 289° |
| 2026-04-22 22:54 | 22.08660 | -106.65023 | 37945 ft | 397 kts | 293° |
| 2026-04-22 22:55 | 22.10709 | -106.70676 | 37955 ft | 398 kts | 292° |
| 2026-04-22 22:55 | 22.13677 | -106.78978 | 37959 ft | 397 kts | 292° |
| 2026-04-22 22:56 | 22.15657 | -106.84538 | 37963 ft | 397 kts | 292° |
| 2026-04-22 22:56 | 22.17637 | -106.90107 | 37960 ft | 397 kts | 292° |
| 2026-04-22 22:57 | 22.19606 | -106.95656 | 37966 ft | 397 kts | 292° |
| 2026-04-22 22:57 | 22.21569 | -107.01193 | 37968 ft | 397 kts | 292° |
| 2026-04-22 22:58 | 22.23529 | -107.06729 | 37969 ft | 396 kts | 292° |
| 2026-04-22 22:58 | 22.25487 | -107.12268 | 37967 ft | 394 kts | 292° |
| 2026-04-22 22:59 | 22.27435 | -107.17784 | 37951 ft | 396 kts | 292° |
| 2026-04-22 22:59 | 22.29402 | -107.23360 | 37949 ft | 396 kts | 292° |
| 2026-04-22 23:00 | 22.31355 | -107.28908 | 37945 ft | 396 kts | 292° |
| 2026-04-22 23:00 | 22.33303 | -107.34443 | 37948 ft | 396 kts | 292° |
| 2026-04-22 23:01 | 22.35254 | -107.39997 | 37948 ft | 396 kts | 292° |
| 2026-04-22 23:01 | 22.37208 | -107.45563 | 37948 ft | 396 kts | 292° |
| 2026-04-22 23:02 | 22.39152 | -107.51109 | 37947 ft | 397 kts | 292° |
| 2026-04-22 23:02 | 22.41095 | -107.56661 | 37944 ft | 395 kts | 292° |
| 2026-04-22 23:03 | 22.42078 | -107.59472 | 37398 ft | 400 kts | 292° |
| 2026-04-22 23:03 | 22.43042 | -107.62230 | 36807 ft | 393 kts | 292° |
| 2026-04-22 23:03 | 22.43995 | -107.64961 | 36232 ft | 383 kts | 292° |
| 2026-04-22 23:03 | 22.44918 | -107.67609 | 35698 ft | 376 kts | 292° |
| 2026-04-22 23:04 | 22.45844 | -107.70261 | 35176 ft | 378 kts | 292° |
| 2026-04-22 23:04 | 22.46781 | -107.72946 | 34667 ft | 386 kts | 292° |
| 2026-04-22 23:04 | 22.47734 | -107.75680 | 34148 ft | 395 kts | 292° |
| 2026-04-22 23:04 | 22.48698 | -107.78449 | 33621 ft | 397 kts | 292° |
| 2026-04-22 23:05 | 22.49675 | -107.81255 | 33093 ft | 397 kts | 292° |
| 2026-04-22 23:05 | 22.50637 | -107.84022 | 32606 ft | 397 kts | 292° |
| 2026-04-22 23:05 | 22.51602 | -107.86799 | 32122 ft | 398 kts | 292° |
| 2026-04-22 23:05 | 22.52580 | -107.89613 | 31633 ft | 399 kts | 291° |
| 2026-04-22 23:06 | 22.53549 | -107.92403 | 31149 ft | 401 kts | 291° |
| 2026-04-22 23:06 | 22.54537 | -107.95251 | 30649 ft | 402 kts | 291° |
| 2026-04-22 23:06 | 22.55504 | -107.98041 | 30157 ft | 399 kts | 291° |
| 2026-04-22 23:06 | 22.56465 | -108.00817 | 29662 ft | 394 kts | 291° |
| 2026-04-22 23:07 | 22.57427 | -108.03594 | 29161 ft | 389 kts | 291° |
| 2026-04-22 23:07 | 22.58363 | -108.06302 | 28684 ft | 387 kts | 291° |
| 2026-04-22 23:07 | 22.59300 | -108.09012 | 28209 ft | 385 kts | 291° |
| 2026-04-22 23:07 | 22.60230 | -108.11704 | 27731 ft | 384 kts | 291° |
| 2026-04-22 23:08 | 22.61159 | -108.14393 | 27251 ft | 383 kts | 291° |
| 2026-04-22 23:08 | 22.62088 | -108.17084 | 26773 ft | 383 kts | 290° |
| 2026-04-22 23:08 | 22.63028 | -108.19808 | 26288 ft | 382 kts | 290° |
| 2026-04-22 23:08 | 22.63945 | -108.22470 | 25811 ft | 379 kts | 290° |
| 2026-04-22 23:09 | 22.64857 | -108.25116 | 25336 ft | 377 kts | 290° |
| 2026-04-22 23:09 | 22.65774 | -108.27780 | 24860 ft | 375 kts | 290° |
| 2026-04-22 23:09 | 22.66671 | -108.30389 | 24388 ft | 372 kts | 290° |
| 2026-04-22 23:09 | 22.67577 | -108.33024 | 23912 ft | 371 kts | 290° |
| 2026-04-22 23:10 | 22.68479 | -108.35648 | 23447 ft | 371 kts | 290° |
| 2026-04-22 23:10 | 22.69374 | -108.38254 | 22978 ft | 369 kts | 289° |
| 2026-04-22 23:10 | 22.70255 | -108.40820 | 22515 ft | 367 kts | 289° |
| 2026-04-22 23:10 | 22.71136 | -108.43388 | 22069 ft | 365 kts | 289° |
| 2026-04-22 23:11 | 22.72023 | -108.45977 | 21600 ft | 362 kts | 289° |
| 2026-04-22 23:11 | 22.72891 | -108.48511 | 21128 ft | 359 kts | 289° |
| 2026-04-22 23:11 | 22.73706 | -108.50893 | 20675 ft | 356 kts | 289° |
| 2026-04-22 23:11 | 22.74558 | -108.53383 | 20222 ft | 353 kts | 289° |
| 2026-04-22 23:12 | 22.75404 | -108.55856 | 19765 ft | 349 kts | 289° |
| 2026-04-22 23:12 | 22.76245 | -108.58318 | 19324 ft | 346 kts | 289° |
| 2026-04-22 23:12 | 22.77076 | -108.60750 | 18886 ft | 344 kts | 289° |
| 2026-04-22 23:12 | 22.77901 | -108.63166 | 18445 ft | 343 kts | 289° |
| 2026-04-22 23:13 | 22.78727 | -108.65588 | 17997 ft | 339 kts | 289° |
| 2026-04-22 23:13 | 22.79536 | -108.67959 | 17562 ft | 336 kts | 289° |
| 2026-04-22 23:13 | 22.80346 | -108.70336 | 17106 ft | 335 kts | 289° |
| 2026-04-22 23:13 | 22.81151 | -108.72701 | 16654 ft | 335 kts | 289° |
| 2026-04-22 23:14 | 22.81954 | -108.75061 | 16197 ft | 334 kts | 289° |
| 2026-04-22 23:14 | 22.82756 | -108.77417 | 15749 ft | 333 kts | 289° |
| 2026-04-22 23:14 | 22.83544 | -108.79734 | 15307 ft | 332 kts | 289° |
| 2026-04-22 23:14 | 22.84341 | -108.82081 | 14862 ft | 332 kts | 289° |
| 2026-04-22 23:15 | 22.85140 | -108.84431 | 14418 ft | 331 kts | 289° |
| 2026-04-22 23:15 | 22.85934 | -108.86772 | 13983 ft | 330 kts | 289° |
| 2026-04-22 23:15 | 22.86721 | -108.89091 | 13672 ft | 324 kts | 289° |
| 2026-04-22 23:15 | 22.87497 | -108.91376 | 13594 ft | 324 kts | 290° |
| 2026-04-22 23:16 | 22.88280 | -108.93687 | 13513 ft | 329 kts | 290° |
| 2026-04-22 23:16 | 22.89066 | -108.96006 | 13410 ft | 329 kts | 289° |
| 2026-04-22 23:16 | 22.89847 | -108.98312 | 13308 ft | 327 kts | 290° |
| 2026-04-22 23:16 | 22.90640 | -109.00654 | 13211 ft | 328 kts | 289° |
| 2026-04-22 23:17 | 22.91414 | -109.02941 | 13123 ft | 327 kts | 289° |
| 2026-04-22 23:17 | 22.92197 | -109.05255 | 13020 ft | 327 kts | 289° |
| 2026-04-22 23:17 | 22.92976 | -109.07561 | 12898 ft | 326 kts | 289° |
| 2026-04-22 23:17 | 22.93757 | -109.09872 | 12797 ft | 325 kts | 289° |
| 2026-04-22 23:18 | 22.94535 | -109.12179 | 12690 ft | 325 kts | 289° |
| 2026-04-22 23:18 | 22.95309 | -109.14471 | 12575 ft | 324 kts | 289° |
| 2026-04-22 23:18 | 22.96079 | -109.16756 | 12463 ft | 322 kts | 289° |
| 2026-04-22 23:18 | 22.96850 | -109.19044 | 12359 ft | 323 kts | 289° |
| 2026-04-22 23:19 | 22.97617 | -109.21321 | 12246 ft | 322 kts | 289° |
| 2026-04-22 23:19 | 22.98384 | -109.23598 | 12132 ft | 320 kts | 289° |
| 2026-04-22 23:19 | 22.99149 | -109.25873 | 12021 ft | 319 kts | 289° |
| 2026-04-22 23:19 | 22.99919 | -109.28117 | 11899 ft | 319 kts | 292° |
| 2026-04-22 23:20 | 23.01084 | -109.30164 | 11767 ft | 321 kts | 309° |
| 2026-04-22 23:20 | 23.02675 | -109.31922 | 11376 ft | 326 kts | 314° |
| 2026-04-22 23:20 | 23.04260 | -109.33612 | 10921 ft | 321 kts | 313° |
| 2026-04-22 23:20 | 23.05850 | -109.35303 | 10512 ft | 313 kts | 313° |
| 2026-04-22 23:21 | 23.07400 | -109.36945 | 10243 ft | 309 kts | 313° |
| 2026-04-22 23:21 | 23.08884 | -109.38512 | 10014 ft | 290 kts | 313° |
| 2026-04-22 23:21 | 23.10292 | -109.40001 | 9925 ft | 273 kts | 313° |
| 2026-04-22 23:21 | 23.11628 | -109.41414 | 9800 ft | 268 kts | 312° |
| 2026-04-22 23:22 | 23.12991 | -109.42860 | 9630 ft | 278 kts | 312° |
| 2026-04-22 23:22 | 23.14378 | -109.44325 | 9430 ft | 276 kts | 313° |
| 2026-04-22 23:22 | 23.15761 | -109.45788 | 9139 ft | 277 kts | 313° |
| 2026-04-22 23:22 | 23.17122 | -109.47224 | 8905 ft | 272 kts | 313° |
| 2026-04-22 23:23 | 23.18481 | -109.48656 | 8558 ft | 274 kts | 313° |
| 2026-04-22 23:23 | 23.19842 | -109.50092 | 8197 ft | 271 kts | 313° |
| 2026-04-22 23:23 | 23.21195 | -109.51518 | 7836 ft | 269 kts | 313° |
| 2026-04-22 23:23 | 23.22540 | -109.52937 | 7477 ft | 267 kts | 314° |
| 2026-04-22 23:24 | 23.23875 | -109.54346 | 7115 ft | 266 kts | 314° |
| 2026-04-22 23:24 | 23.25191 | -109.55735 | 6755 ft | 265 kts | 314° |
| 2026-04-22 23:24 | 23.26513 | -109.57131 | 6416 ft | 263 kts | 314° |
| 2026-04-22 23:24 | 23.27806 | -109.58497 | 6087 ft | 262 kts | 314° |
| 2026-04-22 23:25 | 23.29132 | -109.59898 | 5739 ft | 261 kts | 314° |
| 2026-04-22 23:25 | 23.30419 | -109.61259 | 5372 ft | 260 kts | 315° |
| 2026-04-22 23:25 | 23.31715 | -109.62628 | 5023 ft | 258 kts | 315° |
| 2026-04-22 23:25 | 23.32974 | -109.64015 | 4696 ft | 256 kts | 306° |
| 2026-04-22 23:26 | 23.33691 | -109.65739 | 4346 ft | 248 kts | 276° |
| 2026-04-22 23:26 | 23.33675 | -109.67563 | 4033 ft | 239 kts | 266° |
| 2026-04-22 23:26 | 23.33554 | -109.69358 | 3694 ft | 232 kts | 266° |
| 2026-04-22 23:26 | 23.33414 | -109.71081 | 3414 ft | 229 kts | 261° |
| 2026-04-22 23:27 | 23.32774 | -109.72644 | 3119 ft | 231 kts | 228° |
| 2026-04-22 23:27 | 23.31446 | -109.73556 | 2988 ft | 226 kts | 194° |
| 2026-04-22 23:27 | 23.29898 | -109.73621 | 2867 ft | 220 kts | 175° |
| 2026-04-22 23:27 | 23.28394 | -109.73490 | 2734 ft | 205 kts | 176° |
| 2026-04-22 23:28 | 23.27004 | -109.73370 | 2355 ft | 199 kts | 176° |
| 2026-04-22 23:28 | 23.25683 | -109.73269 | 2175 ft | 178 kts | 175° |
| 2026-04-22 23:28 | 23.24513 | -109.73126 | 2009 ft | 159 kts | 172° |
| 2026-04-22 23:28 | 23.23442 | -109.72992 | 1745 ft | 149 kts | 176° |
| 2026-04-22 23:29 | 23.22429 | -109.72894 | 1448 ft | 145 kts | 173° |
| 2026-04-22 23:29 | 23.21445 | -109.72771 | 1235 ft | 140 kts | 173° |
| 2026-04-22 23:29 | 23.20481 | -109.72662 | 1096 ft | 139 kts | 173° |
| 2026-04-22 23:29 | 23.19518 | -109.72558 | 915 ft | 135 kts | 174° |
| 2026-04-22 23:30 | 23.18572 | -109.72454 | 749 ft | 138 kts | 174° |
| 2026-04-22 23:30 | 23.17637 | -109.72355 | 566 ft | 130 kts | 173° |
| 2026-04-22 23:30 | 23.16727 | -109.72252 | 437 ft | 128 kts | 173° |
| 2026-04-22 23:30 | 23.15848 | -109.72152 | 383 ft | 123 kts | 173° |
| 2026-04-22 23:31 | 23.15216 | -109.72080 | 369 ft | 66 kts | 173° |
| 2026-04-22 23:31 | 23.14850 | -109.72036 | 358 ft | 43 kts | 174° |
| 2026-04-22 23:31 | 23.14666 | -109.71994 | 351 ft | 23 kts | 150° |
| 2026-04-22 23:31 | 23.14520 | -109.71896 | 344 ft | 26 kts | 143° |
| 2026-04-22 23:32 | 23.14471 | -109.71806 | 341 ft | 8 kts | 63° |
| 2026-04-22 23:32 | 23.14525 | -109.71797 | 342 ft | 10 kts | 353° |
| 2026-04-22 23:32 | 23.14619 | -109.71809 | 346 ft | 16 kts | 354° |
| 2026-04-22 23:32 | 23.14757 | -109.71823 | 351 ft | 23 kts | 355° |
| 2026-04-22 23:33 | 23.14831 | -109.71830 | 353 ft | 26 kts | 354° |
| 2026-04-22 23:33 | 23.14856 | -109.71832 | 353 ft | 27 kts | 354° |
| 2026-04-22 23:33 | 23.15028 | -109.71850 | 359 ft | 27 kts | 354° |
| 2026-04-22 23:34 | 23.15238 | -109.71871 | 365 ft | 33 kts | 355° |
| 2026-04-22 23:34 | 23.15453 | -109.71893 | 370 ft | 28 kts | 354° |
| 2026-04-22 23:34 | 23.15645 | -109.71914 | 374 ft | 26 kts | 354° |
| 2026-04-22 23:34 | 23.15827 | -109.71931 | 377 ft | 24 kts | 353° |
| 2026-04-22 23:35 | 23.15994 | -109.71950 | 380 ft | 23 kts | 355° |
| 2026-04-22 23:35 | 23.16151 | -109.71966 | 382 ft | 22 kts | 354° |
| 2026-04-22 23:35 | 23.16248 | -109.71973 | 383 ft | 7 kts | 9° |
| 2026-04-22 23:35 | 23.16276 | -109.71937 | 383 ft | 6 kts | 83° |
| 2026-04-22 23:36 | 23.16265 | -109.71900 | 382 ft | 6 kts | 146° |
| 2026-04-22 23:36 | 23.16158 | -109.71883 | 381 ft | 19 kts | 175° |
| 2026-04-22 23:36 | 23.16022 | -109.71867 | 379 ft | 19 kts | 174° |
| 2026-04-22 23:36 | 23.15911 | -109.71854 | 377 ft | 7 kts | 169° |
| 2026-04-22 23:37 | 23.15894 | -109.71820 | 377 ft | 6 kts | 85° |
| 2026-04-22 23:37 | 23.15896 | -109.71790 | 376 ft | 0 kts | 86° |